createdAt,value
2023-05-18T00:00:15.488Z,55.54
2023-05-18T00:01:15.549Z,56.12
2023-05-18T00:02:15.518Z,56.12
2023-05-18T00:03:15.642Z,56.38
2023-05-18T00:04:15.655Z,56.52
2023-05-18T00:05:15.576Z,56.42
2023-05-18T00:06:15.591Z,56.45
2023-05-18T00:07:15.591Z,56.53
2023-05-18T00:08:15.599Z,56.68
2023-05-18T00:09:15.644Z,56.30
2023-05-18T00:10:15.715Z,56.43
2023-05-18T00:11:15.684Z,56.00
2023-05-18T00:12:15.745Z,55.31
2023-05-18T00:13:15.792Z,55.22
2023-05-18T00:14:15.785Z,55.07
2023-05-18T00:15:15.778Z,55.83
2023-05-18T00:16:15.904Z,55.75
2023-05-18T00:17:15.840Z,56.23
2023-05-18T00:18:15.843Z,56.33
2023-05-18T00:19:15.886Z,56.89
2023-05-18T00:20:15.813Z,56.41
2023-05-18T00:21:15.830Z,56.77
2023-05-18T00:22:15.830Z,56.27
2023-05-18T00:23:15.895Z,56.00
2023-05-18T00:24:15.963Z,55.48
2023-05-18T00:25:15.963Z,55.07
2023-05-18T00:26:15.966Z,55.07
2023-05-18T00:27:15.994Z,54.88
2023-05-18T00:28:16.006Z,54.82
2023-05-18T00:29:16.009Z,54.81
2023-05-18T00:30:16.063Z,54.93
2023-05-18T00:31:16.057Z,55.02
2023-05-18T00:32:16.068Z,55.06
2023-05-18T00:33:16.098Z,55.21
2023-05-18T00:34:16.194Z,54.96
2023-05-18T00:35:16.207Z,54.95
2023-05-18T00:36:16.239Z,54.72
2023-05-18T00:37:16.280Z,54.84
2023-05-18T00:38:16.353Z,54.79
2023-05-18T00:39:16.345Z,54.67
2023-05-18T00:40:16.378Z,54.71
2023-05-18T00:41:16.408Z,54.64
2023-05-18T00:42:16.429Z,54.99
2023-05-18T00:43:16.437Z,55.65
2023-05-18T00:44:16.417Z,56.61
2023-05-18T00:45:16.480Z,56.75
2023-05-18T00:46:16.527Z,56.86
2023-05-18T00:47:16.506Z,56.51
2023-05-18T00:48:16.621Z,56.49
2023-05-18T00:49:16.556Z,56.36
2023-05-18T00:50:16.593Z,56.21
2023-05-18T00:51:16.602Z,56.16
2023-05-18T00:52:16.688Z,56.39
2023-05-18T00:53:16.741Z,56.35
2023-05-18T00:54:16.770Z,56.09
2023-05-18T00:55:16.828Z,56.00
2023-05-18T00:56:16.882Z,55.61
2023-05-18T00:57:16.945Z,55.24
2023-05-18T00:58:17.015Z,55.41
2023-05-18T00:59:17.017Z,55.60
2023-05-18T01:00:17.125Z,55.04
2023-05-18T01:01:17.204Z,55.18
2023-05-18T01:02:17.259Z,55.20
2023-05-18T01:03:17.295Z,55.05
2023-05-18T01:04:17.320Z,55.00
2023-05-18T01:05:17.390Z,55.09
2023-05-18T01:06:17.424Z,54.72
2023-05-18T01:07:17.475Z,54.73
2023-05-18T01:08:17.488Z,54.53
2023-05-18T01:09:17.519Z,54.69
2023-05-18T01:10:17.591Z,54.63
2023-05-18T01:11:17.665Z,54.78
2023-05-18T01:12:17.666Z,54.87
2023-05-18T01:13:17.698Z,54.38
2023-05-18T01:14:17.720Z,54.46
2023-05-18T01:15:17.756Z,54.45
2023-05-18T01:16:17.763Z,54.97
2023-05-18T01:17:17.839Z,55.33
2023-05-18T01:18:17.879Z,56.17
2023-05-18T01:19:17.904Z,56.21
2023-05-18T01:20:17.844Z,56.05
2023-05-18T01:21:17.809Z,55.79
2023-05-18T01:22:17.821Z,55.52
2023-05-18T01:23:17.876Z,55.39
2023-05-18T01:24:17.900Z,55.32
2023-05-18T01:25:17.949Z,55.60
2023-05-18T01:26:17.980Z,56.02
2023-05-18T01:27:17.958Z,56.38
2023-05-18T01:28:17.962Z,56.16
2023-05-18T01:29:17.973Z,56.65
2023-05-18T01:30:17.969Z,57.24
2023-05-18T01:31:18.088Z,56.96
2023-05-18T01:32:17.999Z,57.37
2023-05-18T01:33:18.027Z,57.49
2023-05-18T01:34:17.987Z,57.49
2023-05-18T01:35:18.021Z,58.08
2023-05-18T01:36:18.031Z,57.85
2023-05-18T01:37:18.001Z,57.96
2023-05-18T01:38:17.997Z,57.85
2023-05-18T01:39:17.991Z,57.49
2023-05-18T01:40:18.000Z,57.24
2023-05-18T01:41:18.036Z,57.20
2023-05-18T01:42:18.106Z,56.92
2023-05-18T01:43:18.206Z,56.77
2023-05-18T01:44:18.222Z,56.59
2023-05-18T01:45:18.290Z,56.12
2023-05-18T01:46:18.421Z,56.05
2023-05-18T01:47:18.344Z,55.80
2023-05-18T01:48:18.403Z,55.85
2023-05-18T01:49:18.431Z,55.74
2023-05-18T01:50:18.422Z,55.72
2023-05-18T01:51:18.413Z,55.85
2023-05-18T01:52:18.392Z,55.65
2023-05-18T01:53:18.418Z,55.60
2023-05-18T01:54:18.412Z,55.58
2023-05-18T01:55:18.394Z,55.80
2023-05-18T01:56:18.379Z,55.88
2023-05-18T01:57:18.399Z,55.91
2023-05-18T01:58:18.392Z,55.73
2023-05-18T01:59:18.387Z,56.01
2023-05-18T02:00:18.432Z,55.83
2023-05-18T02:01:18.530Z,55.63
2023-05-18T02:02:18.609Z,56.00
2023-05-18T02:03:18.669Z,55.80
2023-05-18T02:04:18.673Z,55.53
2023-05-18T02:05:18.653Z,55.67
2023-05-18T02:06:18.624Z,55.57
2023-05-18T02:07:18.636Z,55.63
2023-05-18T02:08:18.700Z,55.65
2023-05-18T02:09:18.722Z,56.00
2023-05-18T02:10:18.712Z,56.00
2023-05-18T02:11:18.754Z,55.99
2023-05-18T02:12:18.828Z,55.97
2023-05-18T02:13:18.783Z,56.00
2023-05-18T02:14:18.770Z,55.90
2023-05-18T02:15:18.771Z,56.00
2023-05-18T02:16:18.854Z,57.34
2023-05-18T02:17:18.804Z,57.22
2023-05-18T02:18:18.750Z,57.31
2023-05-18T02:19:18.886Z,57.63
2023-05-18T02:20:18.806Z,57.98
2023-05-18T02:21:18.805Z,57.73
2023-05-18T02:22:18.847Z,57.53
2023-05-18T02:23:18.835Z,57.27
2023-05-18T02:24:18.889Z,56.89
2023-05-18T02:25:18.909Z,56.73
2023-05-18T02:26:18.895Z,56.70
2023-05-18T02:27:18.910Z,56.49
2023-05-18T02:28:18.917Z,56.21
2023-05-18T02:29:18.962Z,56.24
2023-05-18T02:30:18.994Z,56.22
2023-05-18T02:31:18.971Z,56.11
2023-05-18T02:32:18.959Z,56.13
2023-05-18T02:33:18.997Z,56.34
2023-05-18T02:34:19.031Z,56.04
2023-05-18T02:35:19.004Z,55.85
2023-05-18T02:36:19.042Z,56.00
2023-05-18T02:37:19.065Z,56.07
2023-05-18T02:38:19.064Z,56.06
2023-05-18T02:39:19.047Z,55.93
2023-05-18T02:40:19.101Z,55.92
2023-05-18T02:41:19.151Z,55.64
2023-05-18T02:42:19.156Z,55.65
2023-05-18T02:43:19.178Z,55.56
2023-05-18T02:44:19.250Z,55.74
2023-05-18T02:45:19.278Z,55.90
2023-05-18T02:46:19.395Z,55.85
2023-05-18T02:47:19.402Z,55.91
2023-05-18T02:48:19.499Z,55.91
2023-05-18T02:49:19.512Z,55.78
2023-05-18T02:50:19.559Z,55.58
2023-05-18T02:51:19.601Z,55.54
2023-05-18T02:52:19.683Z,55.50
2023-05-18T02:53:19.753Z,55.49
2023-05-18T02:54:19.882Z,55.34
2023-05-18T02:55:19.874Z,55.25
2023-05-18T02:56:19.918Z,55.05
2023-05-18T02:57:19.938Z,55.31
2023-05-18T02:58:20.049Z,55.23
2023-05-18T02:59:20.146Z,55.37
2023-05-18T03:00:20.149Z,55.37
2023-05-18T03:01:20.321Z,55.26
2023-05-18T03:02:20.279Z,55.36
2023-05-18T03:03:20.416Z,55.20
2023-05-18T03:04:20.368Z,54.91
2023-05-18T03:05:20.401Z,54.74
2023-05-18T03:06:20.442Z,54.61
2023-05-18T03:07:20.458Z,54.50
2023-05-18T03:08:20.465Z,54.60
2023-05-18T03:09:20.502Z,54.72
2023-05-18T03:10:20.496Z,54.97
2023-05-18T03:11:20.558Z,55.49
2023-05-18T03:12:20.497Z,55.60
2023-05-18T03:13:20.498Z,55.67
2023-05-18T03:14:20.588Z,55.36
2023-05-18T03:15:20.637Z,55.74
2023-05-18T03:16:20.628Z,55.96
2023-05-18T03:17:20.642Z,56.13
2023-05-18T03:18:20.713Z,56.04
2023-05-18T03:19:20.738Z,55.89
2023-05-18T03:20:20.725Z,55.75
2023-05-18T03:21:20.712Z,55.31
2023-05-18T03:22:20.722Z,55.09
2023-05-18T03:23:20.668Z,54.98
2023-05-18T03:24:20.693Z,54.74
2023-05-18T03:25:20.637Z,54.52
2023-05-18T03:26:20.964Z,54.24
2023-05-18T03:27:20.663Z,54.15
2023-05-18T03:28:20.666Z,54.71
2023-05-18T03:29:20.646Z,54.80
2023-05-18T03:30:20.623Z,54.70
2023-05-18T03:31:20.723Z,54.96
2023-05-18T03:32:20.697Z,54.67
2023-05-18T03:33:20.760Z,54.62
2023-05-18T03:34:20.832Z,54.46
2023-05-18T03:35:20.862Z,54.64
2023-05-18T03:36:20.922Z,54.74
2023-05-18T03:37:21.000Z,54.79
2023-05-18T03:38:21.066Z,54.72
2023-05-18T03:39:21.069Z,54.55
2023-05-18T03:40:21.113Z,54.28
2023-05-18T03:41:21.113Z,54.01
2023-05-18T03:42:21.164Z,54.00
2023-05-18T03:43:21.193Z,54.23
2023-05-18T03:44:21.215Z,54.30
2023-05-18T03:45:21.245Z,54.13
2023-05-18T03:46:21.305Z,54.24
2023-05-18T03:47:21.301Z,54.43
2023-05-18T03:48:21.320Z,54.35
2023-05-18T03:49:21.331Z,54.32
2023-05-18T03:50:21.381Z,54.43
2023-05-18T03:51:21.342Z,54.29
2023-05-18T03:52:21.414Z,54.17
2023-05-18T03:53:21.461Z,54.11
2023-05-18T03:54:21.416Z,53.96
2023-05-18T03:55:21.476Z,54.06
2023-05-18T03:56:21.460Z,53.93
2023-05-18T03:57:21.500Z,53.89
2023-05-18T03:58:21.538Z,54.12
2023-05-18T03:59:21.557Z,54.40
2023-05-18T04:00:21.625Z,54.26
2023-05-18T04:01:21.643Z,54.44
2023-05-18T04:02:21.724Z,54.47
2023-05-18T04:03:21.804Z,54.47
2023-05-18T04:04:21.837Z,54.19
2023-05-18T04:05:21.756Z,53.96
2023-05-18T04:06:21.821Z,53.76
2023-05-18T04:07:21.820Z,53.28
2023-05-18T04:08:21.870Z,53.31
2023-05-18T04:09:21.835Z,53.33
2023-05-18T04:10:21.878Z,53.57
2023-05-18T04:11:21.906Z,53.37
2023-05-18T04:12:21.947Z,53.41
2023-05-18T04:13:22.053Z,53.31
2023-05-18T04:14:22.083Z,52.87
2023-05-18T04:15:22.216Z,52.61
2023-05-18T04:16:22.209Z,52.27
2023-05-18T04:17:22.203Z,52.43
2023-05-18T04:18:22.146Z,52.40
2023-05-18T04:19:22.174Z,52.50
2023-05-18T04:20:22.188Z,52.85
2023-05-18T04:21:22.177Z,52.67
2023-05-18T04:22:22.231Z,52.92
2023-05-18T04:23:22.288Z,53.52
2023-05-18T04:24:22.409Z,53.29
2023-05-18T04:25:22.412Z,53.29
2023-05-18T04:26:22.418Z,53.75
2023-05-18T04:27:22.497Z,53.32
2023-05-18T04:28:22.499Z,53.23
2023-05-18T04:29:22.566Z,53.25
2023-05-18T04:30:22.640Z,53.26
2023-05-18T04:31:22.596Z,53.11
2023-05-18T04:32:22.584Z,53.29
2023-05-18T04:33:22.647Z,53.69
2023-05-18T04:34:22.623Z,53.61
2023-05-18T04:35:22.690Z,53.56
2023-05-18T04:36:22.650Z,53.29
2023-05-18T04:37:22.690Z,53.21
2023-05-18T04:38:22.698Z,53.15
2023-05-18T04:39:22.771Z,52.97
2023-05-18T04:40:22.858Z,52.87
2023-05-18T04:41:22.952Z,52.81
2023-05-18T04:42:22.927Z,52.76
2023-05-18T04:43:22.951Z,52.75
2023-05-18T04:44:22.954Z,53.09
2023-05-18T04:45:23.031Z,53.05
2023-05-18T04:46:23.052Z,53.02
2023-05-18T04:47:23.072Z,53.33
2023-05-18T04:48:23.104Z,54.20
2023-05-18T04:49:23.189Z,54.45
2023-05-18T04:50:23.233Z,55.18
2023-05-18T04:51:23.294Z,55.84
2023-05-18T04:52:23.341Z,55.98
2023-05-18T04:53:23.412Z,55.87
2023-05-18T04:54:23.521Z,56.34
2023-05-18T04:55:23.523Z,56.52
2023-05-18T04:56:23.631Z,56.13
2023-05-18T04:57:23.693Z,55.85
2023-05-18T04:58:23.696Z,55.95
2023-05-18T04:59:23.764Z,55.56
2023-05-18T05:00:23.775Z,55.82
2023-05-18T05:02:51.732Z,55.78
2023-05-18T05:03:44.115Z,55.64
2023-05-18T05:04:43.811Z,55.99
2023-05-18T05:05:43.785Z,56.28
2023-05-18T05:06:43.829Z,56.20
2023-05-18T05:07:43.722Z,55.61
2023-05-18T05:08:44.420Z,55.52
2023-05-18T05:09:43.771Z,55.33
2023-05-18T05:10:43.745Z,55.02
2023-05-18T05:11:43.699Z,54.52
2023-05-18T05:12:45.704Z,54.25
2023-05-18T05:13:43.836Z,53.89
2023-05-18T05:14:43.873Z,53.64
2023-05-18T05:15:43.895Z,53.52
2023-05-18T05:16:43.852Z,53.09
2023-05-18T05:17:43.929Z,52.86
2023-05-18T05:18:44.700Z,52.61
2023-05-18T05:19:44.494Z,53.32
2023-05-18T05:20:43.900Z,52.92
2023-05-18T05:21:43.756Z,52.98
2023-05-18T05:22:43.761Z,52.85
2023-05-18T05:23:43.775Z,52.82
2023-05-18T05:24:44.442Z,52.66
2023-05-18T05:25:43.780Z,53.22
2023-05-18T05:26:43.712Z,53.03
2023-05-18T05:27:43.734Z,53.00
2023-05-18T05:28:43.772Z,52.69
2023-05-18T05:29:43.725Z,52.69
2023-05-18T05:30:43.738Z,52.51
2023-05-18T05:31:43.789Z,52.79
2023-05-18T05:32:43.826Z,53.08
2023-05-18T05:33:43.680Z,53.00
2023-05-18T05:34:43.728Z,52.69
2023-05-18T05:35:43.657Z,53.47
2023-05-18T05:36:44.478Z,53.36
2023-05-18T05:37:43.616Z,52.72
2023-05-18T05:38:43.631Z,52.44
2023-05-18T05:39:43.645Z,52.07
2023-05-18T05:40:43.624Z,51.93
2023-05-18T05:41:43.624Z,51.68
2023-05-18T05:42:43.626Z,51.42
2023-05-18T05:43:43.637Z,51.56
2023-05-18T05:44:44.464Z,51.10
2023-05-18T05:45:51.502Z,50.27
2023-05-18T05:46:43.571Z,49.98
2023-05-18T05:47:43.599Z,49.90
2023-05-18T05:48:43.522Z,49.66
2023-05-18T05:49:43.503Z,49.44
2023-05-18T05:50:43.540Z,49.45
2023-05-18T05:51:43.492Z,50.13
2023-05-18T05:52:43.546Z,50.71
2023-05-18T05:53:43.466Z,51.30
2023-05-18T05:54:43.480Z,51.43
2023-05-18T05:55:43.461Z,51.15
2023-05-18T05:56:43.486Z,50.82
2023-05-18T05:57:43.477Z,50.54
2023-05-18T05:58:43.458Z,50.57
2023-05-18T05:59:43.444Z,50.31
2023-05-18T06:00:43.474Z,49.74
2023-05-18T06:01:43.525Z,49.59
2023-05-18T06:02:43.530Z,49.19
2023-05-18T06:03:43.500Z,49.01
2023-05-18T06:04:43.470Z,49.46
2023-05-18T06:05:43.504Z,49.24
2023-05-18T06:06:43.531Z,48.86
2023-05-18T06:07:43.551Z,48.53
2023-05-18T06:08:43.577Z,48.53
2023-05-18T06:09:43.636Z,48.36
2023-05-18T06:10:43.651Z,48.10
2023-05-18T06:11:43.651Z,48.25
2023-05-18T06:12:43.602Z,48.44
2023-05-18T06:13:43.602Z,48.14
2023-05-18T06:14:43.621Z,47.81
2023-05-18T06:15:43.629Z,47.71
2023-05-18T06:16:43.656Z,47.84
2023-05-18T06:17:43.655Z,48.21
2023-05-18T06:18:43.640Z,48.37
2023-05-18T06:19:43.603Z,48.73
2023-05-18T06:20:43.563Z,49.18
2023-05-18T06:21:43.605Z,49.45
2023-05-18T06:22:43.652Z,50.81
2023-05-18T06:23:43.658Z,50.94
2023-05-18T06:24:43.644Z,50.40
2023-05-18T06:25:43.675Z,50.59
2023-05-18T06:26:43.786Z,49.91
2023-05-18T06:27:43.815Z,49.07
2023-05-18T06:28:43.778Z,48.82
2023-05-18T06:29:43.743Z,48.56
2023-05-18T06:30:43.794Z,48.43
2023-05-18T06:31:43.832Z,48.17
2023-05-18T06:32:43.911Z,47.88
2023-05-18T06:33:43.865Z,47.27
2023-05-18T06:34:43.922Z,46.87
2023-05-18T06:35:43.995Z,46.89
2023-05-18T06:36:44.044Z,47.12
2023-05-18T06:37:46.193Z,47.06
2023-05-18T06:38:44.049Z,47.17
2023-05-18T06:39:44.053Z,47.05
2023-05-18T06:40:44.004Z,47.54
2023-05-18T06:41:44.067Z,47.36
2023-05-18T06:42:43.974Z,46.92
2023-05-18T06:43:44.000Z,47.19
2023-05-18T06:44:43.980Z,47.33
2023-05-18T06:45:44.037Z,47.10
2023-05-18T06:46:44.110Z,47.06
2023-05-18T06:47:44.050Z,47.34
2023-05-18T06:48:43.965Z,46.83
2023-05-18T06:49:43.962Z,46.95
2023-05-18T06:50:43.963Z,46.58
2023-05-18T06:51:44.071Z,46.06
2023-05-18T06:52:43.913Z,46.05
2023-05-18T06:53:43.952Z,45.71
2023-05-18T06:54:44.010Z,46.16
2023-05-18T06:55:43.987Z,46.01
2023-05-18T06:56:43.997Z,45.53
2023-05-18T06:57:44.040Z,45.42
2023-05-18T06:58:44.080Z,45.16
2023-05-18T06:59:44.094Z,45.40
2023-05-18T07:00:44.072Z,45.13
2023-05-18T07:01:44.172Z,44.79
2023-05-18T07:02:44.183Z,44.45
2023-05-18T07:03:44.283Z,46.31
2023-05-18T07:04:44.235Z,47.20
2023-05-18T07:05:44.257Z,47.10
2023-05-18T07:06:44.280Z,46.45
2023-05-18T07:07:44.272Z,45.79
2023-05-18T07:08:44.249Z,45.38
2023-05-18T07:09:44.261Z,46.30
2023-05-18T07:10:44.270Z,46.10
2023-05-18T07:11:44.312Z,45.75
2023-05-18T07:12:44.269Z,45.45
2023-05-18T07:13:44.284Z,45.68
2023-05-18T07:14:44.312Z,44.80
2023-05-18T07:15:44.306Z,45.02
2023-05-18T07:16:44.302Z,44.32
2023-05-18T07:17:44.360Z,44.16
2023-05-18T07:18:44.354Z,46.10
2023-05-18T07:19:44.349Z,45.85
2023-05-18T07:20:44.370Z,44.72
2023-05-18T07:21:44.361Z,45.82
2023-05-18T07:22:44.380Z,44.91
2023-05-18T07:23:44.372Z,44.51
2023-05-18T07:24:44.363Z,44.49
2023-05-18T07:25:44.393Z,44.04
2023-05-18T07:26:44.410Z,44.30
2023-05-18T07:27:44.442Z,44.45
2023-05-18T07:28:44.422Z,44.58
2023-05-18T07:29:44.451Z,44.17
2023-05-18T07:30:44.533Z,44.52
2023-05-18T07:31:44.556Z,43.96
2023-05-18T07:32:44.567Z,43.94
2023-05-18T07:33:44.533Z,43.68
2023-05-18T07:34:44.506Z,43.70
2023-05-18T07:35:44.497Z,43.99
2023-05-18T07:36:45.411Z,43.52
2023-05-18T07:37:44.450Z,43.39
2023-05-18T07:38:44.488Z,43.17
2023-05-18T07:39:44.487Z,43.05
2023-05-18T07:40:44.441Z,42.94
2023-05-18T07:41:44.506Z,42.91
2023-05-18T07:42:44.442Z,43.10
2023-05-18T07:43:44.426Z,43.47
2023-05-18T07:44:44.444Z,43.09
2023-05-18T07:45:44.543Z,42.64
2023-05-18T07:46:44.680Z,42.80
2023-05-18T07:47:44.698Z,42.30
2023-05-18T07:48:44.653Z,42.26
2023-05-18T07:49:44.762Z,41.56
2023-05-18T07:50:44.814Z,42.79
2023-05-18T07:51:44.881Z,41.09
2023-05-18T07:52:44.875Z,40.83
2023-05-18T07:53:44.901Z,41.29
2023-05-18T07:54:44.973Z,41.44
2023-05-18T07:55:44.929Z,41.81
2023-05-18T07:56:45.049Z,41.68
2023-05-18T07:57:45.097Z,40.94
2023-05-18T07:58:45.192Z,41.05
2023-05-18T07:59:45.243Z,40.79
2023-05-18T08:00:45.265Z,40.77
2023-05-18T08:01:45.401Z,40.85
2023-05-18T08:02:45.460Z,40.64
2023-05-18T08:03:45.393Z,40.95
2023-05-18T08:04:45.312Z,40.77
2023-05-18T08:05:45.363Z,40.08
2023-05-18T08:06:45.430Z,39.79
2023-05-18T08:07:45.422Z,39.61
2023-05-18T08:08:53.082Z,39.46
2023-05-18T08:09:45.463Z,40.42
2023-05-18T08:10:45.461Z,40.01
2023-05-18T08:11:45.444Z,40.14
2023-05-18T08:12:45.434Z,40.02
2023-05-18T08:13:45.427Z,39.37
2023-05-18T08:14:45.394Z,39.21
2023-05-18T08:15:46.377Z,38.89
2023-05-18T08:16:45.460Z,38.69
2023-05-18T08:17:45.436Z,38.28
2023-05-18T08:18:45.461Z,39.64
2023-05-18T08:19:45.379Z,38.47
2023-05-18T08:20:45.403Z,38.65
2023-05-18T08:21:45.395Z,39.90
2023-05-18T08:22:45.392Z,39.66
2023-05-18T08:23:45.357Z,39.42
2023-05-18T08:24:45.366Z,39.13
2023-05-18T08:25:45.367Z,39.58
2023-05-18T08:26:45.994Z,38.57
2023-05-18T08:27:45.341Z,39.29
2023-05-18T08:28:45.363Z,38.37
2023-05-18T08:29:45.311Z,38.26
2023-05-18T08:30:45.297Z,37.53
2023-05-18T08:31:47.009Z,37.92
2023-05-18T08:32:45.350Z,37.91
2023-05-18T08:33:45.258Z,38.29
2023-05-18T08:34:45.270Z,38.61
2023-05-18T08:35:45.280Z,38.69
2023-05-18T08:36:45.274Z,39.04
2023-05-18T08:37:45.287Z,39.46
2023-05-18T08:38:45.230Z,39.36
2023-05-18T08:39:45.242Z,38.86
2023-05-18T08:40:45.252Z,38.83
2023-05-18T08:41:45.209Z,38.29
2023-05-18T08:42:49.911Z,38.72
2023-05-18T08:43:46.261Z,37.73
2023-05-18T08:44:45.225Z,38.59
2023-05-18T08:45:45.191Z,37.95
2023-05-18T08:46:45.190Z,37.33
2023-05-18T08:47:45.301Z,37.57
2023-05-18T08:48:45.185Z,37.45
2023-05-18T08:49:45.167Z,37.78
2023-05-18T08:50:45.216Z,37.23
2023-05-18T08:51:45.190Z,37.97
2023-05-18T08:52:45.126Z,38.09
2023-05-18T08:53:45.153Z,38.64
2023-05-18T08:54:45.154Z,38.12
2023-05-18T08:55:45.164Z,38.38
2023-05-18T08:56:45.223Z,37.03
2023-05-18T08:57:56.691Z,37.03
2023-05-18T08:58:45.350Z,36.96
2023-05-18T08:59:45.382Z,37.15
2023-05-18T09:00:45.375Z,36.34
2023-05-18T09:01:45.527Z,36.37
2023-05-18T09:02:45.530Z,37.80
2023-05-18T09:03:45.509Z,37.67
2023-05-18T09:04:45.489Z,37.60
2023-05-18T09:05:45.497Z,37.44
2023-05-18T09:06:45.503Z,37.63
2023-05-18T09:07:45.495Z,37.66
2023-05-18T09:08:45.456Z,37.85
2023-05-18T09:09:45.453Z,38.03
2023-05-18T09:10:45.407Z,38.30
2023-05-18T09:11:45.412Z,38.38
2023-05-18T09:12:45.448Z,38.57
2023-05-18T09:13:45.449Z,38.45
2023-05-18T09:14:45.384Z,38.72
2023-05-18T09:15:45.513Z,38.78
2023-05-18T09:16:45.528Z,38.84
2023-05-18T09:17:45.592Z,38.07
2023-05-18T09:18:45.692Z,38.52
2023-05-18T09:19:45.676Z,38.38
2023-05-18T09:20:45.652Z,38.50
2023-05-18T09:21:45.652Z,37.92
2023-05-18T09:22:45.682Z,37.26
2023-05-18T09:23:45.706Z,36.61
2023-05-18T09:24:45.737Z,37.39
2023-05-18T09:25:45.741Z,36.87
2023-05-18T09:26:45.769Z,37.18
2023-05-18T09:27:45.771Z,37.67
2023-05-18T09:28:45.809Z,38.07
2023-05-18T09:29:45.882Z,37.34
2023-05-18T09:30:45.942Z,37.70
2023-05-18T09:31:46.031Z,37.94
2023-05-18T09:32:46.123Z,37.68
2023-05-18T09:33:46.160Z,37.24
2023-05-18T09:34:46.163Z,37.15
2023-05-18T09:35:47.116Z,37.04
2023-05-18T09:36:46.125Z,36.74
2023-05-18T09:37:46.081Z,36.62
2023-05-18T09:38:46.277Z,36.75
2023-05-18T09:39:46.058Z,37.38
2023-05-18T09:40:46.070Z,37.61
2023-05-18T09:41:46.056Z,37.36
2023-05-18T09:42:46.080Z,37.29
2023-05-18T09:43:46.072Z,36.83
2023-05-18T09:44:46.056Z,36.64
2023-05-18T09:45:46.076Z,36.63
2023-05-18T09:46:46.131Z,36.81
2023-05-18T09:47:46.111Z,36.84
2023-05-18T09:48:46.077Z,36.85
2023-05-18T09:49:46.002Z,36.57
2023-05-18T09:50:45.963Z,36.66
2023-05-18T09:51:46.488Z,36.41
2023-05-18T09:52:46.010Z,36.53
2023-05-18T09:53:46.348Z,36.24
2023-05-18T09:54:46.017Z,36.24
2023-05-18T09:55:46.347Z,36.75
2023-05-18T09:56:52.284Z,36.49
2023-05-18T09:57:47.102Z,36.21
2023-05-18T09:58:46.124Z,36.89
2023-05-18T09:59:46.062Z,37.11
2023-05-18T10:00:46.131Z,37.15
2023-05-18T10:01:46.056Z,36.54
2023-05-18T10:02:46.070Z,36.87
2023-05-18T10:03:46.163Z,36.51
2023-05-18T10:04:46.104Z,36.16
2023-05-18T10:05:46.035Z,36.10
2023-05-18T10:06:46.098Z,37.18
2023-05-18T10:07:46.133Z,37.43
2023-05-18T10:08:46.000Z,37.28
2023-05-18T10:09:46.023Z,37.15
2023-05-18T10:10:46.010Z,38.19
2023-05-18T10:11:46.356Z,37.64
2023-05-18T10:12:46.044Z,37.58
2023-05-18T10:13:45.980Z,39.04
2023-05-18T10:14:45.964Z,37.23
2023-05-18T10:15:46.002Z,38.14
2023-05-18T10:16:46.106Z,37.98
2023-05-18T10:17:46.066Z,38.82
2023-05-18T10:18:46.045Z,38.10
2023-05-18T10:19:46.093Z,38.73
2023-05-18T10:20:46.148Z,38.39
2023-05-18T10:21:46.142Z,38.13
2023-05-18T10:22:46.270Z,38.39
2023-05-18T10:23:46.223Z,37.63
2023-05-18T10:24:46.225Z,37.38
2023-05-18T10:25:46.198Z,37.33
2023-05-18T10:26:46.240Z,37.07
2023-05-18T10:27:46.185Z,36.89
2023-05-18T10:28:46.193Z,36.93
2023-05-18T10:29:46.194Z,36.30
2023-05-18T10:30:46.189Z,36.92
2023-05-18T10:31:46.296Z,36.88
2023-05-18T10:32:46.200Z,36.24
2023-05-18T10:33:46.189Z,36.24
2023-05-18T10:34:46.187Z,35.74
2023-05-18T10:35:46.241Z,35.41
2023-05-18T10:36:46.210Z,35.92
2023-05-18T10:37:46.215Z,35.25
2023-05-18T10:38:46.176Z,35.21
2023-05-18T10:39:46.210Z,34.11
2023-05-18T10:40:46.177Z,34.41
2023-05-18T10:41:46.130Z,34.12
2023-05-18T10:42:46.165Z,34.56
2023-05-18T10:43:46.136Z,35.49
2023-05-18T10:44:46.164Z,35.72
2023-05-18T10:45:46.105Z,36.41
2023-05-18T10:46:46.186Z,35.21
2023-05-18T10:47:46.255Z,35.38
2023-05-18T10:48:47.940Z,34.12
2023-05-18T10:49:46.116Z,34.30
2023-05-18T10:50:46.112Z,34.16
2023-05-18T10:51:46.117Z,34.14
2023-05-18T10:52:46.083Z,34.42
2023-05-18T10:53:46.072Z,34.84
2023-05-18T10:54:46.067Z,34.77
2023-05-18T10:55:46.031Z,34.21
2023-05-18T10:56:46.036Z,34.26
2023-05-18T10:57:46.050Z,33.61
2023-05-18T10:58:46.062Z,33.45
2023-05-18T10:59:48.077Z,34.26
2023-05-18T11:00:46.226Z,32.97
2023-05-18T11:01:46.334Z,32.81
2023-05-18T11:02:46.696Z,34.08
2023-05-18T11:03:46.300Z,35.05
2023-05-18T11:04:46.373Z,34.32
2023-05-18T11:05:46.377Z,34.31
2023-05-18T11:06:46.411Z,34.83
2023-05-18T11:07:46.425Z,34.71
2023-05-18T11:08:46.503Z,35.35
2023-05-18T11:09:46.501Z,35.49
2023-05-18T11:10:46.540Z,35.46
2023-05-18T11:11:46.636Z,35.02
2023-05-18T11:12:46.621Z,35.12
2023-05-18T11:13:46.659Z,34.62
2023-05-18T11:14:46.637Z,34.14
2023-05-18T11:15:46.661Z,34.34
2023-05-18T11:16:46.712Z,34.43
2023-05-18T11:17:46.667Z,33.62
2023-05-18T11:18:46.758Z,33.55
2023-05-18T11:19:46.662Z,32.91
2023-05-18T11:20:46.619Z,32.48
2023-05-18T11:21:46.634Z,31.93
2023-05-18T11:22:46.763Z,32.30
2023-05-18T11:23:46.621Z,32.46
2023-05-18T11:24:46.626Z,31.70
2023-05-18T11:25:46.629Z,31.78
2023-05-18T11:26:46.659Z,32.45
2023-05-18T11:27:46.660Z,32.20
2023-05-18T11:28:47.854Z,32.72
2023-05-18T11:29:46.793Z,33.09
2023-05-18T11:30:46.684Z,33.23
2023-05-18T11:31:46.730Z,33.45
2023-05-18T11:32:46.757Z,33.04
2023-05-18T11:33:46.726Z,32.40
2023-05-18T11:34:46.673Z,32.82
2023-05-18T11:35:46.664Z,32.30
2023-05-18T11:36:46.627Z,33.18
2023-05-18T11:37:46.629Z,33.04
2023-05-18T11:38:46.797Z,32.41
2023-05-18T11:39:58.159Z,32.60
2023-05-18T11:40:46.625Z,32.19
2023-05-18T11:41:46.660Z,32.04
2023-05-18T11:42:46.645Z,32.03
2023-05-18T11:43:46.565Z,31.83
2023-05-18T11:44:46.622Z,32.53
2023-05-18T11:45:46.613Z,32.49
2023-05-18T11:46:46.658Z,32.45
2023-05-18T11:47:46.607Z,31.89
2023-05-18T11:48:46.676Z,31.85
2023-05-18T11:49:46.547Z,32.15
2023-05-18T11:50:46.509Z,32.14
2023-05-18T11:51:46.520Z,32.59
2023-05-18T11:52:46.519Z,33.13
2023-05-18T11:53:46.529Z,32.53
2023-05-18T11:54:46.487Z,32.57
2023-05-18T11:55:46.512Z,32.55
2023-05-18T11:56:46.566Z,32.99
2023-05-18T11:57:46.633Z,33.12
2023-05-18T11:58:46.634Z,33.94
2023-05-18T11:59:46.689Z,33.46
2023-05-18T12:00:46.673Z,33.24
2023-05-18T12:01:46.784Z,32.71
2023-05-18T12:02:46.862Z,32.84
2023-05-18T12:03:48.623Z,32.64
2023-05-18T12:04:46.788Z,33.63
2023-05-18T12:05:46.728Z,33.47
2023-05-18T12:06:46.730Z,33.11
2023-05-18T12:07:46.707Z,33.41
2023-05-18T12:08:46.734Z,32.34
2023-05-18T12:09:46.740Z,32.21
2023-05-18T12:10:46.814Z,32.57
2023-05-18T12:11:46.821Z,32.31
2023-05-18T12:12:46.797Z,32.22
2023-05-18T12:13:46.867Z,32.53
2023-05-18T12:14:46.878Z,32.70
2023-05-18T12:15:46.871Z,32.13
2023-05-18T12:16:46.972Z,32.63
2023-05-18T12:17:46.995Z,32.31
2023-05-18T12:18:46.960Z,32.08
2023-05-18T12:19:46.929Z,32.15
2023-05-18T12:20:46.972Z,31.91
2023-05-18T12:21:46.932Z,31.80
2023-05-18T12:22:46.947Z,31.98
2023-05-18T12:23:46.932Z,31.82
2023-05-18T12:24:46.918Z,32.52
2023-05-18T12:25:46.952Z,32.53
2023-05-18T12:26:46.923Z,32.74
2023-05-18T12:27:46.906Z,31.93
2023-05-18T12:28:46.928Z,31.86
2023-05-18T12:29:46.920Z,32.31
2023-05-18T12:30:46.933Z,32.39
2023-05-18T12:31:46.885Z,31.51
2023-05-18T12:32:46.938Z,31.61
2023-05-18T12:33:46.896Z,31.50
2023-05-18T12:34:46.902Z,31.96
2023-05-18T12:35:46.921Z,30.70
2023-05-18T12:36:47.004Z,30.18
2023-05-18T12:37:47.563Z,30.91
2023-05-18T12:38:47.022Z,30.38
2023-05-18T12:39:47.097Z,30.31
2023-05-18T12:40:47.158Z,30.95
2023-05-18T12:41:47.163Z,31.45
2023-05-18T12:42:47.254Z,32.59
2023-05-18T12:43:47.263Z,32.58
2023-05-18T12:44:47.327Z,32.17
2023-05-18T12:45:47.343Z,32.68
2023-05-18T12:46:47.349Z,32.64
2023-05-18T12:47:47.484Z,32.81
2023-05-18T12:48:47.420Z,32.09
2023-05-18T12:49:47.369Z,32.43
2023-05-18T12:50:47.452Z,33.05
2023-05-18T12:51:47.493Z,32.70
2023-05-18T12:52:47.464Z,32.10
2023-05-18T12:53:47.483Z,31.68